sensor_id;sensor_type;location;lat;lon;timestamp;P1;durP1;ratioP1;P2;durP2;ratioP2
51495;SDS011;37572;52.094;4.870;2022-08-19T00:00:19;12.90;;;11.80;;
51495;SDS011;37572;52.094;4.870;2022-08-19T00:02:45;14.80;;;11.95;;
51495;SDS011;37572;52.094;4.870;2022-08-19T00:05:12;13.77;;;12.50;;
51495;SDS011;37572;52.094;4.870;2022-08-19T00:07:38;20.83;;;18.63;;
51495;SDS011;37572;52.094;4.870;2022-08-19T00:10:05;22.25;;;19.15;;
51495;SDS011;37572;52.094;4.870;2022-08-19T00:12:32;26.23;;;23.50;;
51495;SDS011;37572;52.094;4.870;2022-08-19T00:14:58;25.98;;;21.63;;
51495;SDS011;37572;52.094;4.870;2022-08-19T00:17:24;26.52;;;22.85;;
51495;SDS011;37572;52.094;4.870;2022-08-19T00:19:49;27.48;;;23.38;;
51495;SDS011;37572;52.094;4.870;2022-08-19T00:22:14;26.27;;;22.23;;
51495;SDS011;37572;52.094;4.870;2022-08-19T00:24:42;26.05;;;23.08;;
51495;SDS011;37572;52.094;4.870;2022-08-19T00:27:08;28.77;;;25.75;;
51495;SDS011;37572;52.094;4.870;2022-08-19T00:29:33;35.35;;;28.17;;
51495;SDS011;37572;52.094;4.870;2022-08-19T00:31:59;29.98;;;25.10;;
51495;SDS011;37572;52.094;4.870;2022-08-19T00:34:25;27.45;;;24.30;;
51495;SDS011;37572;52.094;4.870;2022-08-19T00:36:54;32.15;;;25.67;;
51495;SDS011;37572;52.094;4.870;2022-08-19T00:39:20;30.13;;;24.85;;
51495;SDS011;37572;52.094;4.870;2022-08-19T00:41:46;33.70;;;25.63;;
51495;SDS011;37572;52.094;4.870;2022-08-19T00:46:42;31.52;;;27.23;;
51495;SDS011;37572;52.094;4.870;2022-08-19T00:49:11;29.55;;;25.67;;
51495;SDS011;37572;52.094;4.870;2022-08-19T00:51:42;35.17;;;27.02;;
51495;SDS011;37572;52.094;4.870;2022-08-19T00:54:10;30.90;;;26.83;;
51495;SDS011;37572;52.094;4.870;2022-08-19T00:56:36;36.42;;;26.20;;
51495;SDS011;37572;52.094;4.870;2022-08-19T00:59:02;29.33;;;25.35;;
51495;SDS011;37572;52.094;4.870;2022-08-19T01:01:33;35.08;;;27.20;;
51495;SDS011;37572;52.094;4.870;2022-08-19T01:04:00;31.67;;;26.83;;
51495;SDS011;37572;52.094;4.870;2022-08-19T01:06:26;36.75;;;28.48;;
51495;SDS011;37572;52.094;4.870;2022-08-19T01:08:52;38.03;;;29.15;;
51495;SDS011;37572;52.094;4.870;2022-08-19T01:11:19;33.97;;;27.88;;
51495;SDS011;37572;52.094;4.870;2022-08-19T01:13:44;34.92;;;28.10;;
51495;SDS011;37572;52.094;4.870;2022-08-19T01:16:12;33.55;;;27.75;;
51495;SDS011;37572;52.094;4.870;2022-08-19T01:18:39;37.78;;;28.98;;
51495;SDS011;37572;52.094;4.870;2022-08-19T01:21:15;33.40;;;26.80;;
51495;SDS011;37572;52.094;4.870;2022-08-19T01:23:46;34.90;;;27.80;;
51495;SDS011;37572;52.094;4.870;2022-08-19T01:26:16;33.97;;;26.38;;
51495;SDS011;37572;52.094;4.870;2022-08-19T01:28:47;32.25;;;26.42;;
51495;SDS011;37572;52.094;4.870;2022-08-19T01:31:17;36.10;;;24.65;;
51495;SDS011;37572;52.094;4.870;2022-08-19T01:33:46;29.73;;;23.70;;
51495;SDS011;37572;52.094;4.870;2022-08-19T01:36:16;28.77;;;22.67;;
51495;SDS011;37572;52.094;4.870;2022-08-19T01:38:48;30.05;;;23.48;;
51495;SDS011;37572;52.094;4.870;2022-08-19T01:41:14;25.52;;;21.33;;
51495;SDS011;37572;52.094;4.870;2022-08-19T01:43:42;30.17;;;23.38;;
51495;SDS011;37572;52.094;4.870;2022-08-19T01:46:08;27.25;;;21.40;;
51495;SDS011;37572;52.094;4.870;2022-08-19T01:48:34;30.60;;;21.80;;
51495;SDS011;37572;52.094;4.870;2022-08-19T01:51:04;28.00;;;21.40;;
51495;SDS011;37572;52.094;4.870;2022-08-19T01:53:30;30.65;;;22.25;;
51495;SDS011;37572;52.094;4.870;2022-08-19T01:55:55;29.27;;;22.83;;
51495;SDS011;37572;52.094;4.870;2022-08-19T01:58:23;31.35;;;22.50;;
51495;SDS011;37572;52.094;4.870;2022-08-19T02:00:54;29.52;;;22.13;;
51495;SDS011;37572;52.094;4.870;2022-08-19T02:03:19;30.88;;;22.33;;
51495;SDS011;37572;52.094;4.870;2022-08-19T02:05:44;30.05;;;22.10;;
51495;SDS011;37572;52.094;4.870;2022-08-19T02:08:10;29.02;;;22.30;;
51495;SDS011;37572;52.094;4.870;2022-08-19T02:10:42;26.88;;;22.15;;
51495;SDS011;37572;52.094;4.870;2022-08-19T02:13:09;34.80;;;25.42;;
51495;SDS011;37572;52.094;4.870;2022-08-19T02:15:35;34.67;;;24.90;;
51495;SDS011;37572;52.094;4.870;2022-08-19T02:18:01;37.63;;;25.23;;
51495;SDS011;37572;52.094;4.870;2022-08-19T02:20:26;36.83;;;26.27;;
51495;SDS011;37572;52.094;4.870;2022-08-19T02:22:51;36.03;;;25.05;;
51495;SDS011;37572;52.094;4.870;2022-08-19T02:25:17;35.33;;;26.13;;
51495;SDS011;37572;52.094;4.870;2022-08-19T02:27:43;45.90;;;27.75;;
51495;SDS011;37572;52.094;4.870;2022-08-19T02:30:10;39.05;;;26.88;;
51495;SDS011;37572;52.094;4.870;2022-08-19T02:32:38;40.60;;;26.83;;
51495;SDS011;37572;52.094;4.870;2022-08-19T02:35:04;40.63;;;27.17;;
51495;SDS011;37572;52.094;4.870;2022-08-19T02:37:29;41.13;;;27.27;;
51495;SDS011;37572;52.094;4.870;2022-08-19T02:40:13;40.78;;;27.90;;
51495;SDS011;37572;52.094;4.870;2022-08-19T02:42:39;41.20;;;26.67;;
51495;SDS011;37572;52.094;4.870;2022-08-19T02:45:06;36.78;;;26.77;;
51495;SDS011;37572;52.094;4.870;2022-08-19T02:47:32;40.85;;;27.98;;
51495;SDS011;37572;52.094;4.870;2022-08-19T02:50:00;39.55;;;26.77;;
51495;SDS011;37572;52.094;4.870;2022-08-19T02:52:26;43.50;;;27.83;;
51495;SDS011;37572;52.094;4.870;2022-08-19T02:54:52;41.22;;;26.85;;
51495;SDS011;37572;52.094;4.870;2022-08-19T02:57:17;39.53;;;26.98;;
51495;SDS011;37572;52.094;4.870;2022-08-19T02:59:43;38.55;;;27.42;;
51495;SDS011;37572;52.094;4.870;2022-08-19T03:02:08;43.92;;;27.33;;
51495;SDS011;37572;52.094;4.870;2022-08-19T03:04:33;42.08;;;27.27;;
51495;SDS011;37572;52.094;4.870;2022-08-19T03:06:59;41.00;;;26.77;;
51495;SDS011;37572;52.094;4.870;2022-08-19T03:09:24;40.45;;;26.65;;
51495;SDS011;37572;52.094;4.870;2022-08-19T03:11:49;41.55;;;27.77;;
51495;SDS011;37572;52.094;4.870;2022-08-19T03:14:15;43.60;;;28.58;;
51495;SDS011;37572;52.094;4.870;2022-08-19T03:16:42;39.67;;;27.75;;
51495;SDS011;37572;52.094;4.870;2022-08-19T03:19:13;39.78;;;28.60;;
51495;SDS011;37572;52.094;4.870;2022-08-19T03:21:41;41.03;;;28.23;;
51495;SDS011;37572;52.094;4.870;2022-08-19T03:24:09;35.22;;;25.45;;
51495;SDS011;37572;52.094;4.870;2022-08-19T03:26:38;39.50;;;28.77;;
51495;SDS011;37572;52.094;4.870;2022-08-19T03:31:30;36.40;;;25.45;;
51495;SDS011;37572;52.094;4.870;2022-08-19T03:33:56;35.10;;;25.00;;
51495;SDS011;37572;52.094;4.870;2022-08-19T03:36:22;33.47;;;23.48;;
51495;SDS011;37572;52.094;4.870;2022-08-19T03:38:50;33.72;;;23.70;;
51495;SDS011;37572;52.094;4.870;2022-08-19T03:41:20;35.65;;;24.30;;
51495;SDS011;37572;52.094;4.870;2022-08-19T03:43:49;35.65;;;24.75;;
51495;SDS011;37572;52.094;4.870;2022-08-19T03:46:16;32.05;;;23.90;;
51495;SDS011;37572;52.094;4.870;2022-08-19T03:48:45;35.65;;;24.05;;
51495;SDS011;37572;52.094;4.870;2022-08-19T03:51:18;33.70;;;23.90;;
51495;SDS011;37572;52.094;4.870;2022-08-19T03:53:47;36.10;;;25.63;;
51495;SDS011;37572;52.094;4.870;2022-08-19T03:56:12;38.38;;;26.17;;
51495;SDS011;37572;52.094;4.870;2022-08-19T03:58:38;41.83;;;27.08;;
51495;SDS011;37572;52.094;4.870;2022-08-19T04:01:07;44.22;;;28.55;;
51495;SDS011;37572;52.094;4.870;2022-08-19T04:03:37;41.70;;;29.60;;
51495;SDS011;37572;52.094;4.870;2022-08-19T04:06:24;63.25;;;38.47;;
51495;SDS011;37572;52.094;4.870;2022-08-19T04:08:51;62.95;;;36.45;;
51495;SDS011;37572;52.094;4.870;2022-08-19T04:11:20;58.25;;;35.88;;
51495;SDS011;37572;52.094;4.870;2022-08-19T04:13:50;53.28;;;33.72;;
51495;SDS011;37572;52.094;4.870;2022-08-19T04:16:17;58.63;;;34.42;;
51495;SDS011;37572;52.094;4.870;2022-08-19T04:18:45;56.08;;;33.95;;
51495;SDS011;37572;52.094;4.870;2022-08-19T04:21:16;71.07;;;41.45;;
51495;SDS011;37572;52.094;4.870;2022-08-19T04:23:46;75.38;;;45.75;;
51495;SDS011;37572;52.094;4.870;2022-08-19T04:26:16;83.47;;;47.10;;
51495;SDS011;37572;52.094;4.870;2022-08-19T04:28:43;75.25;;;43.60;;
51495;SDS011;37572;52.094;4.870;2022-08-19T04:31:15;84.47;;;46.67;;
51495;SDS011;37572;52.094;4.870;2022-08-19T04:33:43;85.72;;;47.45;;
51495;SDS011;37572;52.094;4.870;2022-08-19T04:36:15;74.25;;;46.55;;
51495;SDS011;37572;52.094;4.870;2022-08-19T04:38:45;80.18;;;46.60;;
51495;SDS011;37572;52.094;4.870;2022-08-19T04:41:11;92.45;;;49.45;;
51495;SDS011;37572;52.094;4.870;2022-08-19T04:44:09;90.18;;;50.20;;
51495;SDS011;37572;52.094;4.870;2022-08-19T04:46:35;92.28;;;49.75;;
51495;SDS011;37572;52.094;4.870;2022-08-19T04:49:01;93.53;;;51.70;;
51495;SDS011;37572;52.094;4.870;2022-08-19T04:51:29;98.90;;;52.67;;
51495;SDS011;37572;52.094;4.870;2022-08-19T04:53:56;94.80;;;54.13;;
51495;SDS011;37572;52.094;4.870;2022-08-19T04:56:21;101.82;;;56.53;;
51495;SDS011;37572;52.094;4.870;2022-08-19T04:58:47;110.38;;;58.45;;
51495;SDS011;37572;52.094;4.870;2022-08-19T05:01:22;110.10;;;57.63;;
51495;SDS011;37572;52.094;4.870;2022-08-19T05:03:50;120.72;;;60.95;;
51495;SDS011;37572;52.094;4.870;2022-08-19T05:06:16;133.13;;;66.28;;
51495;SDS011;37572;52.094;4.870;2022-08-19T05:08:44;130.10;;;62.92;;
51495;SDS011;37572;52.094;4.870;2022-08-19T05:11:11;138.23;;;64.63;;
51495;SDS011;37572;52.094;4.870;2022-08-19T05:13:39;118.30;;;61.08;;
51495;SDS011;37572;52.094;4.870;2022-08-19T05:16:05;119.38;;;62.30;;
51495;SDS011;37572;52.094;4.870;2022-08-19T05:18:31;130.35;;;62.05;;
51495;SDS011;37572;52.094;4.870;2022-08-19T05:21:16;137.68;;;64.22;;
51495;SDS011;37572;52.094;4.870;2022-08-19T05:24:02;134.23;;;66.78;;
51495;SDS011;37572;52.094;4.870;2022-08-19T05:26:30;126.88;;;64.38;;
51495;SDS011;37572;52.094;4.870;2022-08-19T05:28:55;135.00;;;64.53;;
51495;SDS011;37572;52.094;4.870;2022-08-19T05:31:21;124.40;;;62.90;;
51495;SDS011;37572;52.094;4.870;2022-08-19T05:33:47;124.00;;;62.10;;
51495;SDS011;37572;52.094;4.870;2022-08-19T05:36:12;128.75;;;64.05;;
51495;SDS011;37572;52.094;4.870;2022-08-19T05:38:39;127.28;;;64.25;;
51495;SDS011;37572;52.094;4.870;2022-08-19T05:41:11;115.38;;;60.95;;
51495;SDS011;37572;52.094;4.870;2022-08-19T05:43:38;119.50;;;63.60;;
51495;SDS011;37572;52.094;4.870;2022-08-19T05:46:04;125.35;;;64.57;;
51495;SDS011;37572;52.094;4.870;2022-08-19T05:48:31;121.45;;;62.65;;
51495;SDS011;37572;52.094;4.870;2022-08-19T05:50:57;124.60;;;64.20;;
51495;SDS011;37572;52.094;4.870;2022-08-19T05:53:23;124.88;;;62.47;;
51495;SDS011;37572;52.094;4.870;2022-08-19T05:55:48;125.15;;;63.00;;
51495;SDS011;37572;52.094;4.870;2022-08-19T05:58:14;129.57;;;64.35;;
51495;SDS011;37572;52.094;4.870;2022-08-19T06:00:39;125.38;;;65.72;;
51495;SDS011;37572;52.094;4.870;2022-08-19T06:03:07;114.47;;;62.80;;
51495;SDS011;37572;52.094;4.870;2022-08-19T06:05:32;120.35;;;61.80;;
51495;SDS011;37572;52.094;4.870;2022-08-19T06:07:58;128.65;;;65.18;;
51495;SDS011;37572;52.094;4.870;2022-08-19T06:10:26;133.57;;;70.38;;
51495;SDS011;37572;52.094;4.870;2022-08-19T06:12:53;129.15;;;65.45;;
51495;SDS011;37572;52.094;4.870;2022-08-19T06:15:18;126.57;;;67.22;;
51495;SDS011;37572;52.094;4.870;2022-08-19T06:17:44;117.65;;;62.97;;
51495;SDS011;37572;52.094;4.870;2022-08-19T06:20:10;107.07;;;57.58;;
51495;SDS011;37572;52.094;4.870;2022-08-19T06:22:39;110.50;;;58.83;;
51495;SDS011;37572;52.094;4.870;2022-08-19T06:25:09;108.65;;;58.78;;
51495;SDS011;37572;52.094;4.870;2022-08-19T06:27:35;92.55;;;52.40;;
51495;SDS011;37572;52.094;4.870;2022-08-19T06:30:01;96.53;;;54.72;;
51495;SDS011;37572;52.094;4.870;2022-08-19T06:32:27;95.05;;;54.45;;
51495;SDS011;37572;52.094;4.870;2022-08-19T06:34:52;99.85;;;55.35;;
51495;SDS011;37572;52.094;4.870;2022-08-19T06:37:18;95.88;;;53.35;;
51495;SDS011;37572;52.094;4.870;2022-08-19T06:39:43;91.40;;;54.17;;
51495;SDS011;37572;52.094;4.870;2022-08-19T06:42:10;88.43;;;51.67;;
51495;SDS011;37572;52.094;4.870;2022-08-19T06:44:39;92.63;;;53.50;;
51495;SDS011;37572;52.094;4.870;2022-08-19T06:47:07;94.15;;;53.72;;
51495;SDS011;37572;52.094;4.870;2022-08-19T06:49:34;82.95;;;51.15;;
51495;SDS011;37572;52.094;4.870;2022-08-19T06:52:00;78.95;;;49.63;;
51495;SDS011;37572;52.094;4.870;2022-08-19T06:54:26;90.70;;;51.72;;
51495;SDS011;37572;52.094;4.870;2022-08-19T06:56:59;85.93;;;51.33;;
51495;SDS011;37572;52.094;4.870;2022-08-19T06:59:29;80.63;;;49.85;;
51495;SDS011;37572;52.094;4.870;2022-08-19T07:01:57;78.70;;;48.78;;
51495;SDS011;37572;52.094;4.870;2022-08-19T07:04:26;78.05;;;50.83;;
51495;SDS011;37572;52.094;4.870;2022-08-19T07:06:57;95.00;;;49.75;;
51495;SDS011;37572;52.094;4.870;2022-08-19T07:09:28;85.25;;;50.88;;
51495;SDS011;37572;52.094;4.870;2022-08-19T07:11:54;81.95;;;50.25;;
51495;SDS011;37572;52.094;4.870;2022-08-19T07:14:24;78.38;;;50.08;;
51495;SDS011;37572;52.094;4.870;2022-08-19T07:16:52;72.95;;;48.22;;
51495;SDS011;37572;52.094;4.870;2022-08-19T07:19:20;73.68;;;47.97;;
51495;SDS011;37572;52.094;4.870;2022-08-19T07:21:47;80.10;;;49.00;;
51495;SDS011;37572;52.094;4.870;2022-08-19T07:24:17;85.60;;;50.60;;
51495;SDS011;37572;52.094;4.870;2022-08-19T07:26:44;71.80;;;47.80;;
51495;SDS011;37572;52.094;4.870;2022-08-19T07:29:10;81.00;;;48.80;;
51495;SDS011;37572;52.094;4.870;2022-08-19T07:31:35;72.57;;;49.58;;
51495;SDS011;37572;52.094;4.870;2022-08-19T07:34:03;77.32;;;47.70;;
51495;SDS011;37572;52.094;4.870;2022-08-19T07:36:31;82.45;;;49.33;;
51495;SDS011;37572;52.094;4.870;2022-08-19T07:38:59;75.88;;;47.38;;
51495;SDS011;37572;52.094;4.870;2022-08-19T07:43:56;74.18;;;43.92;;
51495;SDS011;37572;52.094;4.870;2022-08-19T07:46:23;64.30;;;45.22;;
51495;SDS011;37572;52.094;4.870;2022-08-19T07:48:49;70.75;;;46.47;;
51495;SDS011;37572;52.094;4.870;2022-08-19T07:51:17;66.70;;;46.78;;
51495;SDS011;37572;52.094;4.870;2022-08-19T07:53:46;63.75;;;44.78;;
51495;SDS011;37572;52.094;4.870;2022-08-19T07:56:13;65.78;;;47.35;;
51495;SDS011;37572;52.094;4.870;2022-08-19T07:58:40;69.40;;;47.20;;
51495;SDS011;37572;52.094;4.870;2022-08-19T08:01:08;60.55;;;44.42;;
51495;SDS011;37572;52.094;4.870;2022-08-19T08:03:35;68.88;;;43.90;;
51495;SDS011;37572;52.094;4.870;2022-08-19T08:06:20;58.75;;;42.33;;
51495;SDS011;37572;52.094;4.870;2022-08-19T08:09:05;62.15;;;44.22;;
51495;SDS011;37572;52.094;4.870;2022-08-19T08:11:36;61.13;;;41.88;;
51495;SDS011;37572;52.094;4.870;2022-08-19T08:14:08;62.88;;;43.50;;
51495;SDS011;37572;52.094;4.870;2022-08-19T08:16:35;64.38;;;42.90;;
51495;SDS011;37572;52.094;4.870;2022-08-19T08:19:05;55.17;;;41.95;;
51495;SDS011;37572;52.094;4.870;2022-08-19T08:21:31;54.28;;;39.53;;
51495;SDS011;37572;52.094;4.870;2022-08-19T08:23:57;57.95;;;38.00;;
51495;SDS011;37572;52.094;4.870;2022-08-19T08:26:23;54.97;;;40.13;;
51495;SDS011;37572;52.094;4.870;2022-08-19T08:28:49;58.83;;;39.92;;
51495;SDS011;37572;52.094;4.870;2022-08-19T08:31:15;48.25;;;34.90;;
51495;SDS011;37572;52.094;4.870;2022-08-19T08:33:41;52.22;;;38.42;;
51495;SDS011;37572;52.094;4.870;2022-08-19T08:36:07;55.72;;;36.40;;
51495;SDS011;37572;52.094;4.870;2022-08-19T08:38:33;56.95;;;37.28;;
51495;SDS011;37572;52.094;4.870;2022-08-19T08:41:06;51.42;;;34.63;;
51495;SDS011;37572;52.094;4.870;2022-08-19T08:43:44;36.58;;;26.05;;
51495;SDS011;37572;52.094;4.870;2022-08-19T08:46:15;37.50;;;26.55;;
51495;SDS011;37572;52.094;4.870;2022-08-19T08:51:36;38.35;;;24.17;;
51495;SDS011;37572;52.094;4.870;2022-08-19T08:54:06;31.98;;;26.23;;
51495;SDS011;37572;52.094;4.870;2022-08-19T08:56:34;31.77;;;23.80;;
51495;SDS011;37572;52.094;4.870;2022-08-19T08:59:04;36.20;;;24.63;;
51495;SDS011;37572;52.094;4.870;2022-08-19T09:01:33;35.65;;;25.13;;
51495;SDS011;37572;52.094;4.870;2022-08-19T09:03:59;36.25;;;24.85;;
51495;SDS011;37572;52.094;4.870;2022-08-19T09:06:32;33.67;;;21.65;;
51495;SDS011;37572;52.094;4.870;2022-08-19T09:17:21;26.42;;;17.00;;
51495;SDS011;37572;52.094;4.870;2022-08-19T09:22:38;22.13;;;18.13;;
51495;SDS011;37572;52.094;4.870;2022-08-19T09:25:05;33.10;;;20.95;;
51495;SDS011;37572;52.094;4.870;2022-08-19T09:27:32;27.48;;;20.63;;
51495;SDS011;37572;52.094;4.870;2022-08-19T09:29:58;26.60;;;20.85;;
51495;SDS011;37572;52.094;4.870;2022-08-19T09:32:23;29.90;;;21.58;;
51495;SDS011;37572;52.094;4.870;2022-08-19T09:34:50;28.95;;;21.63;;
51495;SDS011;37572;52.094;4.870;2022-08-19T09:37:19;32.80;;;23.65;;
51495;SDS011;37572;52.094;4.870;2022-08-19T09:39:45;35.00;;;24.13;;
51495;SDS011;37572;52.094;4.870;2022-08-19T09:42:10;29.42;;;23.27;;
51495;SDS011;37572;52.094;4.870;2022-08-19T09:44:37;35.83;;;27.58;;
51495;SDS011;37572;52.094;4.870;2022-08-19T09:47:06;34.25;;;26.20;;
51495;SDS011;37572;52.094;4.870;2022-08-19T09:49:32;34.53;;;28.05;;
51495;SDS011;37572;52.094;4.870;2022-08-19T09:51:58;38.38;;;25.55;;
51495;SDS011;37572;52.094;4.870;2022-08-19T09:54:24;29.05;;;23.45;;
51495;SDS011;37572;52.094;4.870;2022-08-19T09:56:50;33.78;;;27.00;;
51495;SDS011;37572;52.094;4.870;2022-08-19T09:59:16;41.72;;;27.92;;
51495;SDS011;37572;52.094;4.870;2022-08-19T10:01:41;32.60;;;25.83;;
51495;SDS011;37572;52.094;4.870;2022-08-19T10:04:07;34.50;;;26.75;;
51495;SDS011;37572;52.094;4.870;2022-08-19T10:06:36;36.05;;;25.95;;
51495;SDS011;37572;52.094;4.870;2022-08-19T10:09:04;34.72;;;25.63;;
51495;SDS011;37572;52.094;4.870;2022-08-19T10:11:35;32.47;;;22.77;;
51495;SDS011;37572;52.094;4.870;2022-08-19T10:14:03;32.78;;;21.58;;
51495;SDS011;37572;52.094;4.870;2022-08-19T10:16:30;31.00;;;23.55;;
51495;SDS011;37572;52.094;4.870;2022-08-19T10:18:56;34.63;;;22.77;;
51495;SDS011;37572;52.094;4.870;2022-08-19T10:21:23;30.13;;;22.48;;
51495;SDS011;37572;52.094;4.870;2022-08-19T10:23:54;34.47;;;19.88;;
51495;SDS011;37572;52.094;4.870;2022-08-19T10:26:23;31.00;;;23.42;;
51495;SDS011;37572;52.094;4.870;2022-08-19T10:28:50;31.33;;;22.88;;
51495;SDS011;37572;52.094;4.870;2022-08-19T10:31:16;32.65;;;21.27;;
51495;SDS011;37572;52.094;4.870;2022-08-19T10:33:47;34.35;;;21.75;;
51495;SDS011;37572;52.094;4.870;2022-08-19T10:36:13;28.02;;;21.83;;
51495;SDS011;37572;52.094;4.870;2022-08-19T10:38:45;29.60;;;22.05;;
51495;SDS011;37572;52.094;4.870;2022-08-19T10:41:16;25.88;;;19.63;;
51495;SDS011;37572;52.094;4.870;2022-08-19T10:43:43;31.80;;;22.98;;
51495;SDS011;37572;52.094;4.870;2022-08-19T10:46:10;27.85;;;21.13;;
51495;SDS011;37572;52.094;4.870;2022-08-19T10:48:39;32.83;;;22.38;;
51495;SDS011;37572;52.094;4.870;2022-08-19T10:51:05;31.40;;;21.98;;
51495;SDS011;37572;52.094;4.870;2022-08-19T10:53:49;29.95;;;21.23;;
51495;SDS011;37572;52.094;4.870;2022-08-19T10:56:15;28.48;;;21.35;;
51495;SDS011;37572;52.094;4.870;2022-08-19T10:59:00;31.70;;;22.35;;
51495;SDS011;37572;52.094;4.870;2022-08-19T11:01:26;29.70;;;23.00;;
51495;SDS011;37572;52.094;4.870;2022-08-19T11:03:52;31.08;;;24.17;;
51495;SDS011;37572;52.094;4.870;2022-08-19T11:06:18;29.73;;;25.00;;
51495;SDS011;37572;52.094;4.870;2022-08-19T11:08:44;36.85;;;26.88;;
51495;SDS011;37572;52.094;4.870;2022-08-19T11:11:10;37.10;;;27.48;;
51495;SDS011;37572;52.094;4.870;2022-08-19T11:13:37;38.35;;;28.08;;
51495;SDS011;37572;52.094;4.870;2022-08-19T11:16:11;39.13;;;25.00;;
51495;SDS011;37572;52.094;4.870;2022-08-19T11:18:40;29.92;;;25.40;;
51495;SDS011;37572;52.094;4.870;2022-08-19T11:21:13;30.08;;;23.77;;
51495;SDS011;37572;52.094;4.870;2022-08-19T11:23:46;36.78;;;23.65;;
51495;SDS011;37572;52.094;4.870;2022-08-19T11:26:14;24.70;;;19.33;;
51495;SDS011;37572;52.094;4.870;2022-08-19T11:28:40;26.38;;;20.13;;
51495;SDS011;37572;52.094;4.870;2022-08-19T11:31:12;21.95;;;17.90;;
51495;SDS011;37572;52.094;4.870;2022-08-19T11:33:42;25.10;;;17.10;;
51495;SDS011;37572;52.094;4.870;2022-08-19T11:36:07;20.48;;;15.60;;
51495;SDS011;37572;52.094;4.870;2022-08-19T11:38:33;21.02;;;16.75;;
51495;SDS011;37572;52.094;4.870;2022-08-19T11:41:01;24.02;;;15.82;;
51495;SDS011;37572;52.094;4.870;2022-08-19T11:43:29;24.77;;;13.60;;
51495;SDS011;37572;52.094;4.870;2022-08-19T11:45:56;16.45;;;11.40;;
51495;SDS011;37572;52.094;4.870;2022-08-19T11:48:23;14.50;;;10.05;;
51495;SDS011;37572;52.094;4.870;2022-08-19T11:50:50;32.65;;;11.65;;
51495;SDS011;37572;52.094;4.870;2022-08-19T11:53:17;15.10;;;11.98;;
51495;SDS011;37572;52.094;4.870;2022-08-19T11:55:45;21.20;;;13.23;;
51495;SDS011;37572;52.094;4.870;2022-08-19T11:58:12;25.20;;;15.48;;
51495;SDS011;37572;52.094;4.870;2022-08-19T12:00:39;27.15;;;17.02;;
51495;SDS011;37572;52.094;4.870;2022-08-19T12:03:05;23.50;;;15.73;;
51495;SDS011;37572;52.094;4.870;2022-08-19T12:05:31;21.88;;;14.02;;
51495;SDS011;37572;52.094;4.870;2022-08-19T12:07:56;21.55;;;16.05;;
51495;SDS011;37572;52.094;4.870;2022-08-19T12:10:22;24.63;;;16.52;;
51495;SDS011;37572;52.094;4.870;2022-08-19T12:12:48;21.23;;;16.02;;
51495;SDS011;37572;52.094;4.870;2022-08-19T12:15:14;23.45;;;15.77;;
51495;SDS011;37572;52.094;4.870;2022-08-19T12:17:40;10.57;;;8.20;;
51495;SDS011;37572;52.094;4.870;2022-08-19T12:20:06;9.95;;;6.95;;
51495;SDS011;37572;52.094;4.870;2022-08-19T12:22:34;10.65;;;7.22;;
51495;SDS011;37572;52.094;4.870;2022-08-19T12:25:00;11.27;;;6.30;;
51495;SDS011;37572;52.094;4.870;2022-08-19T12:27:25;12.15;;;5.60;;
51495;SDS011;37572;52.094;4.870;2022-08-19T12:29:52;15.05;;;6.22;;
51495;SDS011;37572;52.094;4.870;2022-08-19T12:32:17;14.52;;;6.40;;
51495;SDS011;37572;52.094;4.870;2022-08-19T12:34:42;11.18;;;5.57;;
51495;SDS011;37572;52.094;4.870;2022-08-19T12:37:08;8.68;;;5.07;;
51495;SDS011;37572;52.094;4.870;2022-08-19T12:39:40;6.20;;;4.72;;
51495;SDS011;37572;52.094;4.870;2022-08-19T12:42:07;7.78;;;4.53;;
51495;SDS011;37572;52.094;4.870;2022-08-19T12:44:34;7.72;;;4.43;;
51495;SDS011;37572;52.094;4.870;2022-08-19T12:47:00;6.85;;;4.00;;
51495;SDS011;37572;52.094;4.870;2022-08-19T12:49:28;7.03;;;3.88;;
51495;SDS011;37572;52.094;4.870;2022-08-19T12:51:54;5.88;;;3.67;;
51495;SDS011;37572;52.094;4.870;2022-08-19T12:54:19;6.72;;;3.15;;
51495;SDS011;37572;52.094;4.870;2022-08-19T12:56:45;6.97;;;3.03;;
51495;SDS011;37572;52.094;4.870;2022-08-19T12:59:10;4.88;;;2.50;;
51495;SDS011;37572;52.094;4.870;2022-08-19T13:01:36;4.68;;;2.35;;
51495;SDS011;37572;52.094;4.870;2022-08-19T13:04:01;5.57;;;2.38;;
51495;SDS011;37572;52.094;4.870;2022-08-19T13:06:27;7.60;;;3.50;;
51495;SDS011;37572;52.094;4.870;2022-08-19T13:08:53;4.93;;;3.20;;
51495;SDS011;37572;52.094;4.870;2022-08-19T13:11:20;5.20;;;3.55;;
51495;SDS011;37572;52.094;4.870;2022-08-19T13:13:46;10.63;;;3.80;;
51495;SDS011;37572;52.094;4.870;2022-08-19T13:16:15;12.88;;;4.95;;
51495;SDS011;37572;52.094;4.870;2022-08-19T13:18:41;7.82;;;4.55;;
51495;SDS011;37572;52.094;4.870;2022-08-19T13:21:09;7.43;;;4.88;;
51495;SDS011;37572;52.094;4.870;2022-08-19T13:23:38;6.20;;;5.00;;
51495;SDS011;37572;52.094;4.870;2022-08-19T13:26:05;6.85;;;4.45;;
51495;SDS011;37572;52.094;4.870;2022-08-19T13:28:32;4.82;;;3.58;;
51495;SDS011;37572;52.094;4.870;2022-08-19T13:31:20;4.93;;;4.32;;
51495;SDS011;37572;52.094;4.870;2022-08-19T13:34:06;5.80;;;3.70;;
51495;SDS011;37572;52.094;4.870;2022-08-19T13:36:33;5.55;;;3.75;;
51495;SDS011;37572;52.094;4.870;2022-08-19T13:38:59;6.30;;;4.10;;
51495;SDS011;37572;52.094;4.870;2022-08-19T13:41:24;4.15;;;3.75;;
51495;SDS011;37572;52.094;4.870;2022-08-19T13:43:50;4.28;;;3.50;;
51495;SDS011;37572;52.094;4.870;2022-08-19T13:46:15;8.30;;;6.35;;
51495;SDS011;37572;52.094;4.870;2022-08-19T13:48:41;5.82;;;4.82;;
51495;SDS011;37572;52.094;4.870;2022-08-19T13:51:07;9.60;;;5.50;;
51495;SDS011;37572;52.094;4.870;2022-08-19T13:53:36;10.90;;;5.45;;
51495;SDS011;37572;52.094;4.870;2022-08-19T13:56:07;11.02;;;6.78;;
51495;SDS011;37572;52.094;4.870;2022-08-19T13:58:34;7.85;;;6.40;;
51495;SDS011;37572;52.094;4.870;2022-08-19T14:00:59;8.23;;;6.60;;
51495;SDS011;37572;52.094;4.870;2022-08-19T14:03:25;8.77;;;5.72;;
51495;SDS011;37572;52.094;4.870;2022-08-19T14:05:51;5.90;;;5.28;;
51495;SDS011;37572;52.094;4.870;2022-08-19T14:08:17;9.52;;;6.00;;
51495;SDS011;37572;52.094;4.870;2022-08-19T14:10:43;7.30;;;5.25;;
51495;SDS011;37572;52.094;4.870;2022-08-19T14:13:10;8.73;;;5.55;;
51495;SDS011;37572;52.094;4.870;2022-08-19T14:15:38;8.13;;;4.63;;
51495;SDS011;37572;52.094;4.870;2022-08-19T14:18:03;6.22;;;5.07;;
51495;SDS011;37572;52.094;4.870;2022-08-19T14:20:29;5.72;;;5.18;;
51495;SDS011;37572;52.094;4.870;2022-08-19T14:22:54;6.32;;;5.18;;
51495;SDS011;37572;52.094;4.870;2022-08-19T14:25:21;6.32;;;4.80;;
51495;SDS011;37572;52.094;4.870;2022-08-19T14:27:50;6.72;;;3.85;;
51495;SDS011;37572;52.094;4.870;2022-08-19T14:30:17;6.22;;;4.28;;
51495;SDS011;37572;52.094;4.870;2022-08-19T14:32:44;6.53;;;4.25;;
51495;SDS011;37572;52.094;4.870;2022-08-19T14:35:10;8.05;;;4.75;;
51495;SDS011;37572;52.094;4.870;2022-08-19T14:37:37;9.60;;;5.13;;
51495;SDS011;37572;52.094;4.870;2022-08-19T14:40:04;10.57;;;5.95;;
51495;SDS011;37572;52.094;4.870;2022-08-19T14:42:30;9.57;;;5.55;;
51495;SDS011;37572;52.094;4.870;2022-08-19T14:44:58;10.07;;;7.55;;
51495;SDS011;37572;52.094;4.870;2022-08-19T14:47:24;9.85;;;7.50;;